Time;durP1;ratioP1;P1;durP2;ratioP2;P2;SDS_P1;SDS_P2;PMS_P1;PMS_P2;Temp;Humidity;BMP_temperature;BMP_pressure;BME280_temperature;BME280_humidity;BME280_pressure;Samples;Min_cycle;Max_cycle;Signal;HPM_P1;HPM_P2
2021/09/13 00:00:44;;;;;;;9.90;8.20;;;;;;;;;;5016700;28;20403;-64
2021/09/13 00:03:11;;;;;;;12.90;8.87;;;;;;;;;;5032080;28;20422;-64
2021/09/13 00:05:37;;;;;;;9.43;8.27;;;;;;;;;;5036216;28;20912;-64
2021/09/13 00:08:03;;;;;;;12.40;9.03;;;;;;;;;;5035058;28;20911;-64
2021/09/13 00:10:29;;;;;;;10.03;8.20;;;;;;;;;;5036028;28;20390;-64
2021/09/13 00:12:55;;;;;;;11.70;8.73;;;;;;;;;;5035042;28;20422;-65
2021/09/13 00:15:21;;;;;;;11.67;8.60;;;;;;;;;;5036013;28;20403;-64
2021/09/13 00:17:47;;;;;;;9.13;8.03;;;;;;;;;;5034911;28;20469;-64
2021/09/13 00:20:13;;;;;;;8.50;7.40;;;;;;;;;;5035899;28;20403;-65
2021/09/13 00:22:39;;;;;;;10.67;9.20;;;;;;;;;;5033311;28;20453;-64
2021/09/13 00:25:06;;;;;;;12.90;8.43;;;;;;;;;;5036081;28;20403;-64
2021/09/13 00:27:32;;;;;;;18.90;8.43;;;;;;;;;;5035167;28;20792;-65
2021/09/13 00:29:58;;;;;;;11.70;8.73;;;;;;;;;;5034439;28;20418;-64
2021/09/13 00:32:24;;;;;;;14.90;7.83;;;;;;;;;;5029349;28;20447;-64
2021/09/13 00:34:50;;;;;;;14.33;9.00;;;;;;;;;;5015798;28;20437;-64
2021/09/13 00:37:16;;;;;;;15.17;9.47;;;;;;;;;;5023264;28;20466;-64
2021/09/13 00:39:42;;;;;;;9.50;8.27;;;;;;;;;;5035614;28;20407;-64
2021/09/13 00:42:09;;;;;;;9.70;8.17;;;;;;;;;;5034290;28;20886;-65
2021/09/13 00:44:35;;;;;;;10.47;7.90;;;;;;;;;;5035219;28;20403;-64
2021/09/13 00:47:01;;;;;;;11.70;9.90;;;;;;;;;;5033545;28;20431;-64
2021/09/13 00:49:27;;;;;;;13.60;8.20;;;;;;;;;;5035559;28;20411;-65
2021/09/13 00:51:53;;;;;;;10.10;7.37;;;;;;;;;;5034592;28;20500;-65
2021/09/13 00:54:19;;;;;;;12.87;7.90;;;;;;;;;;5035193;28;20779;-65
2021/09/13 00:56:46;;;;;;;10.37;9.03;;;;;;;;;;5034147;28;20877;-65
2021/09/13 00:59:13;;;;;;;9.47;8.50;;;;;;;;;;5035309;28;20407;-65
2021/09/13 01:01:39;;;;;;;9.07;7.60;;;;;;;;;;5033855;28;20827;-65
2021/09/13 01:04:05;;;;;;;11.23;8.20;;;;;;;;;;5035014;28;20485;-65
2021/09/13 01:06:31;;;;;;;8.47;7.47;;;;;;;;;;5031221;28;20792;-65
2021/09/13 01:08:58;;;;;;;11.63;7.83;;;;;;;;;;5034890;28;20403;-65
2021/09/13 01:11:24;;;;;;;9.10;7.17;;;;;;;;;;5034124;28;20803;-65
2021/09/13 01:13:50;;;;;;;10.80;8.40;;;;;;;;;;5034906;28;20420;-65
2021/09/13 01:16:16;;;;;;;9.67;8.03;;;;;;;;;;5034107;28;20467;-65
2021/09/13 01:18:42;;;;;;;9.47;7.60;;;;;;;;;;5035022;28;20442;-65
2021/09/13 01:21:08;;;;;;;10.27;7.70;;;;;;;;;;5008036;28;20447;-65
2021/09/13 01:23:36;;;;;;;10.87;8.00;;;;;;;;;;5027301;28;20435;-65
2021/09/13 01:26:02;;;;;;;12.27;7.30;;;;;;;;;;5033813;28;20517;-65
2021/09/13 01:28:29;;;;;;;9.33;7.93;;;;;;;;;;5034698;28;20445;-65
2021/09/13 01:30:55;;;;;;;8.97;7.10;;;;;;;;;;5033663;28;20468;-65
2021/09/13 01:33:22;;;;;;;9.73;6.73;;;;;;;;;;5034782;28;20411;-65
2021/09/13 01:35:48;;;;;;;11.07;7.20;;;;;;;;;;5033479;28;20472;-65
2021/09/13 01:38:14;;;;;;;10.67;7.60;;;;;;;;;;5016547;28;20407;-64
2021/09/13 01:40:40;;;;;;;9.93;8.50;;;;;;;;;;5031739;28;20894;-64
2021/09/13 01:43:06;;;;;;;9.80;8.50;;;;;;;;;;5033820;28;20399;-64
2021/09/13 01:45:32;;;;;;;9.40;7.10;;;;;;;;;;5033377;28;20480;-65
2021/09/13 01:47:59;;;;;;;13.50;9.40;;;;;;;;;;5034640;28;20434;-64
2021/09/13 01:50:25;;;;;;;8.90;8.00;;;;;;;;;;5033099;28;20405;-65
2021/09/13 01:52:51;;;;;;;11.20;8.23;;;;;;;;;;5033882;28;20450;-64
2021/09/13 01:55:17;;;;;;;9.80;8.67;;;;;;;;;;5033420;28;20771;-65
2021/09/13 01:57:43;;;;;;;11.20;8.87;;;;;;;;;;5019063;28;20795;-65
2021/09/13 02:00:09;;;;;;;13.50;9.40;;;;;;;;;;5014056;28;20931;-64
2021/09/13 02:02:35;;;;;;;9.43;7.77;;;;;;;;;;5028628;28;20485;-64
2021/09/13 02:05:01;;;;;;;10.07;8.43;;;;;;;;;;5034024;28;20430;-64
2021/09/13 02:07:27;;;;;;;11.43;8.57;;;;;;;;;;5029771;28;20485;-64
2021/09/13 02:09:53;;;;;;;10.40;7.47;;;;;;;;;;5033957;28;20751;-64
2021/09/13 02:12:20;;;;;;;11.13;8.40;;;;;;;;;;5032932;28;20951;-64
2021/09/13 02:14:47;;;;;;;12.73;9.03;;;;;;;;;;5033867;28;20402;-64
2021/09/13 02:17:13;;;;;;;11.80;8.87;;;;;;;;;;5033198;28;20829;-64
2021/09/13 02:19:39;;;;;;;11.17;9.47;;;;;;;;;;5016155;28;20781;-64
2021/09/13 02:22:05;;;;;;;12.67;8.50;;;;;;;;;;5032609;28;20962;-64
2021/09/13 02:24:31;;;;;;;10.93;8.80;;;;;;;;;;5033686;28;20403;-64
2021/09/13 02:26:58;;;;;;;14.50;9.97;;;;;;;;;;5031202;28;20427;-64
2021/09/13 02:29:24;;;;;;;10.77;9.57;;;;;;;;;;5032782;28;20847;-64
2021/09/13 02:31:50;;;;;;;11.17;7.80;;;;;;;;;;5032498;28;21039;-64
2021/09/13 02:34:16;;;;;;;11.00;8.70;;;;;;;;;;5033526;28;20407;-64
2021/09/13 02:36:42;;;;;;;13.60;9.07;;;;;;;;;;5032476;28;20881;-64
2021/09/13 02:39:09;;;;;;;10.17;8.77;;;;;;;;;;5033393;28;20947;-64
2021/09/13 02:41:35;;;;;;;10.80;9.10;;;;;;;;;;5032072;28;21093;-64
2021/09/13 02:44:01;;;;;;;11.83;9.20;;;;;;;;;;5033423;28;20493;-64
2021/09/13 02:46:27;;;;;;;11.50;9.47;;;;;;;;;;5032533;28;20454;-65
2021/09/13 02:48:54;;;;;;;14.00;9.80;;;;;;;;;;5033345;28;20416;-65
2021/09/13 02:51:20;;;;;;;10.90;9.57;;;;;;;;;;5032153;28;20831;-65
2021/09/13 02:53:46;;;;;;;9.77;8.70;;;;;;;;;;5032775;28;20407;-65
2021/09/13 02:56:12;;;;;;;10.57;9.47;;;;;;;;;;5032339;28;20455;-65
2021/09/13 02:58:38;;;;;;;11.97;9.27;;;;;;;;;;5033204;28;20411;-65
2021/09/13 03:01:04;;;;;;;10.60;9.50;;;;;;;;;;5032938;28;20431;-65
2021/09/13 03:03:30;;;;;;;10.53;8.73;;;;;;;;;;5031007;28;20643;-65
2021/09/13 03:05:57;;;;;;;10.67;9.30;;;;;;;;;;5033069;28;20415;-65
2021/09/13 03:08:23;;;;;;;11.80;9.20;;;;;;;;;;5032185;28;20438;-65
2021/09/13 03:10:49;;;;;;;9.70;8.70;;;;;;;;;;5033141;28;20449;-66
2021/09/13 03:13:15;;;;;;;16.73;9.17;;;;;;;;;;5032236;28;20433;-65
2021/09/13 03:15:41;;;;;;;10.43;8.30;;;;;;;;;;5033170;28;20421;-65
2021/09/13 03:18:08;;;;;;;9.80;8.20;;;;;;;;;;5032315;28;20450;-65
2021/09/13 03:20:34;;;;;;;11.07;8.53;;;;;;;;;;5032956;28;20457;-64
2021/09/13 03:23:00;;;;;;;12.03;7.60;;;;;;;;;;5014578;28;20423;-65
2021/09/13 03:25:26;;;;;;;10.77;8.00;;;;;;;;;;5033220;28;20407;-65
2021/09/13 03:27:52;;;;;;;9.73;8.27;;;;;;;;;;5026456;28;20462;-64
2021/09/13 03:30:18;;;;;;;13.90;8.40;;;;;;;;;;5031497;28;20507;-64
2021/09/13 03:32:44;;;;;;;9.30;8.00;;;;;;;;;;5031831;28;20453;-64
2021/09/13 03:35:11;;;;;;;10.20;7.10;;;;;;;;;;5028575;28;20505;-64
2021/09/13 03:37:37;;;;;;;8.60;7.50;;;;;;;;;;5031927;28;20462;-64
2021/09/13 03:40:03;;;;;;;9.07;7.90;;;;;;;;;;5032847;28;20903;-64
2021/09/13 03:42:29;;;;;;;10.37;8.13;;;;;;;;;;5010974;28;20498;-64
2021/09/13 03:44:55;;;;;;;10.07;8.40;;;;;;;;;;5013096;28;20400;-64
2021/09/13 03:47:21;;;;;;;12.50;8.33;;;;;;;;;;5013171;28;20431;-64
2021/09/13 03:49:47;;;;;;;11.70;9.17;;;;;;;;;;5013116;28;20802;-64
2021/09/13 03:52:13;;;;;;;8.77;7.87;;;;;;;;;;5018618;28;20957;-64
2021/09/13 03:54:40;;;;;;;11.13;9.30;;;;;;;;;;5032957;28;20422;-65
2021/09/13 03:57:06;;;;;;;13.20;8.60;;;;;;;;;;5031871;28;20459;-64
2021/09/13 03:59:32;;;;;;;12.60;9.93;;;;;;;;;;5032677;28;20403;-64
2021/09/13 04:01:59;;;;;;;10.67;9.40;;;;;;;;;;5031551;28;20508;-64
2021/09/13 04:04:27;;;;;;;10.43;9.00;;;;;;;;;;5033457;28;20409;-64
2021/09/13 04:07:21;;;;;;;11.77;9.23;;;;;;;;;;5035127;28;20430;-64
2021/09/13 04:12:09;;;;;;;10.77;9.20;;;;;;;;;;5025343;28;20478;-64
2021/09/13 04:14:35;;;;;;;13.30;9.63;;;;;;;;;;5036275;28;20460;-64
2021/09/13 04:17:01;;;;;;;9.77;8.77;;;;;;;;;;5032140;28;20494;-64
2021/09/13 04:19:27;;;;;;;10.83;9.10;;;;;;;;;;5027295;28;20956;-64
2021/09/13 04:21:54;;;;;;;12.70;9.70;;;;;;;;;;5035161;28;20434;-64
2021/09/13 04:24:21;;;;;;;14.30;9.27;;;;;;;;;;5035933;28;20399;-64
2021/09/13 04:26:47;;;;;;;14.20;9.40;;;;;;;;;;5035288;28;20406;-64
2021/09/13 04:29:13;;;;;;;11.00;9.57;;;;;;;;;;5035927;28;20896;-64
2021/09/13 04:31:39;;;;;;;14.90;9.20;;;;;;;;;;5035188;28;20429;-64
2021/09/13 04:34:05;;;;;;;11.60;9.40;;;;;;;;;;5032940;28;20438;-64
2021/09/13 04:36:32;;;;;;;12.33;10.47;;;;;;;;;;5035960;28;20504;-64
2021/09/13 04:38:58;;;;;;;19.80;11.80;;;;;;;;;;5034691;28;20924;-64
2021/09/13 04:41:24;;;;;;;12.83;11.00;;;;;;;;;;5032613;28;20446;-64
2021/09/13 04:43:50;;;;;;;14.23;12.20;;;;;;;;;;5034830;28;20454;-64
2021/09/13 04:46:16;;;;;;;17.27;12.47;;;;;;;;;;5035725;28;20476;-64
2021/09/13 04:48:42;;;;;;;16.10;12.70;;;;;;;;;;5034722;28;20431;-64
2021/09/13 04:51:08;;;;;;;13.23;11.10;;;;;;;;;;5017643;28;20512;-64
2021/09/13 04:53:34;;;;;;;12.20;9.90;;;;;;;;;;5034598;28;20430;-64
2021/09/13 04:56:00;;;;;;;17.53;9.63;;;;;;;;;;5035200;28;20458;-64
2021/09/13 04:58:26;;;;;;;12.47;9.80;;;;;;;;;;5034358;28;20426;-64
2021/09/13 05:00:52;;;;;;;12.23;9.70;;;;;;;;;;5035459;28;20485;-65
2021/09/13 05:03:18;;;;;;;11.23;9.33;;;;;;;;;;5033424;28;20434;-66
2021/09/13 05:05:44;;;;;;;14.60;9.77;;;;;;;;;;5034951;28;20403;-65
2021/09/13 05:08:10;;;;;;;12.20;10.07;;;;;;;;;;5034306;28;20423;-64
2021/09/13 05:10:36;;;;;;;10.60;9.40;;;;;;;;;;5035043;28;20431;-65
2021/09/13 05:13:03;;;;;;;14.30;11.17;;;;;;;;;;5034084;28;20430;-64
2021/09/13 05:15:29;;;;;;;14.37;10.47;;;;;;;;;;5034973;28;20409;-65
2021/09/13 05:17:55;;;;;;;13.20;11.17;;;;;;;;;;5031608;28;20469;-65
2021/09/13 05:20:21;;;;;;;14.53;11.70;;;;;;;;;;5034978;28;20494;-64
2021/09/13 05:22:47;;;;;;;13.07;11.53;;;;;;;;;;5029325;28;20539;-64
2021/09/13 05:25:13;;;;;;;13.50;10.60;;;;;;;;;;5015202;28;20466;-65
2021/09/13 05:27:39;;;;;;;14.80;11.57;;;;;;;;;;5018522;28;20438;-65
2021/09/13 05:30:05;;;;;;;13.23;11.00;;;;;;;;;;5034788;28;20493;-64
2021/09/13 05:32:32;;;;;;;16.10;12.10;;;;;;;;;;5033674;28;20458;-65
2021/09/13 05:34:58;;;;;;;12.30;10.27;;;;;;;;;;5034559;28;20494;-65
2021/09/13 05:37:24;;;;;;;11.50;10.03;;;;;;;;;;5032509;28;20463;-65
2021/09/13 05:39:50;;;;;;;22.73;11.40;;;;;;;;;;5016998;28;20405;-66
2021/09/13 05:42:16;;;;;;;14.37;10.90;;;;;;;;;;5033647;28;20423;-65
2021/09/13 05:44:42;;;;;;;11.73;10.03;;;;;;;;;;5034399;28;20522;-65
2021/09/13 05:47:08;;;;;;;13.47;10.10;;;;;;;;;;5034618;28;20406;-65
2021/09/13 05:49:34;;;;;;;12.70;10.00;;;;;;;;;;5033606;28;20422;-65
2021/09/13 05:52:01;;;;;;;13.67;10.93;;;;;;;;;;5033950;28;20444;-65
2021/09/13 05:54:27;;;;;;;12.27;10.50;;;;;;;;;;5033377;28;20434;-65
2021/09/13 05:56:53;;;;;;;13.53;9.73;;;;;;;;;;5016395;28;20450;-65
2021/09/13 05:59:20;;;;;;;11.40;9.43;;;;;;;;;;5033225;28;20422;-65
2021/09/13 06:01:47;;;;;;;16.77;10.63;;;;;;;;;;5034076;28;20505;-65
2021/09/13 06:04:13;;;;;;;12.37;9.47;;;;;;;;;;5033115;28;20457;-65
2021/09/13 06:06:39;;;;;;;10.13;9.10;;;;;;;;;;5016261;28;20417;-65
2021/09/13 06:09:06;;;;;;;14.33;9.57;;;;;;;;;;5033317;28;20450;-65
2021/09/13 06:11:32;;;;;;;11.03;9.10;;;;;;;;;;5032153;28;20447;-65
2021/09/13 06:13:58;;;;;;;14.43;10.70;;;;;;;;;;5012078;28;20443;-65
2021/09/13 06:16:24;;;;;;;11.77;9.77;;;;;;;;;;5014064;28;20483;-65
2021/09/13 06:18:50;;;;;;;11.97;8.03;;;;;;;;;;5025067;28;20437;-65
2021/09/13 06:21:17;;;;;;;14.40;9.90;;;;;;;;;;5032659;28;20442;-66
2021/09/13 06:23:44;;;;;;;12.43;9.67;;;;;;;;;;5022982;28;20434;-65
2021/09/13 06:26:10;;;;;;;15.87;11.30;;;;;;;;;;5013907;28;20810;-66
2021/09/13 06:28:36;;;;;;;11.07;9.27;;;;;;;;;;5022600;28;20431;-65
2021/09/13 06:31:02;;;;;;;14.07;11.30;;;;;;;;;;5033480;28;20450;-66
2021/09/13 06:33:30;;;;;;;12.50;10.60;;;;;;;;;;5032679;28;20431;-64
2021/09/13 06:35:56;;;;;;;10.13;8.60;;;;;;;;;;5033800;28;20403;-64
2021/09/13 06:38:22;;;;;;;14.50;9.70;;;;;;;;;;5030910;28;20509;-65
2021/09/13 06:40:48;;;;;;;13.90;10.00;;;;;;;;;;5033354;28;20401;-65
2021/09/13 06:43:16;;;;;;;18.30;9.00;;;;;;;;;;5032597;28;20422;-64
2021/09/13 06:45:44;;;;;;;14.30;8.87;;;;;;;;;;5032615;28;20829;-64
2021/09/13 06:48:11;;;;;;;12.97;9.70;;;;;;;;;;5014649;28;20426;-64
2021/09/13 06:50:38;;;;;;;13.20;9.70;;;;;;;;;;5032532;28;20444;-65
2021/09/13 06:53:05;;;;;;;13.10;9.83;;;;;;;;;;5045856;23;20558;-84
2021/09/13 06:55:31;;;;;;;9.97;8.13;;;;;;;;;;5039514;28;21001;-84
2021/09/13 06:57:59;;;;;;;11.90;8.83;;;;;;;;;;5021815;28;20463;-84
2021/09/13 07:00:25;;;;;;;14.63;8.87;;;;;;;;;;5028249;28;20439;-84
2021/09/13 07:02:51;;;;;;;10.13;7.83;;;;;;;;;;5029415;28;20961;-82
2021/09/13 07:05:17;;;;;;;10.27;8.03;;;;;;;;;;5047292;23;20453;-65
2021/09/13 07:07:43;;;;;;;8.80;6.90;;;;;;;;;;5042477;28;20448;-64
2021/09/13 07:10:10;;;;;;;10.43;6.80;;;;;;;;;;5045583;28;20516;-64
2021/09/13 07:12:37;;;;;;;12.53;7.73;;;;;;;;;;5044099;28;20422;-64
2021/09/13 07:15:03;;;;;;;8.83;7.37;;;;;;;;;;5041211;28;20430;-64
2021/09/13 07:17:30;;;;;;;9.13;7.27;;;;;;;;;;5048649;28;20523;-65
2021/09/13 07:19:56;;;;;;;11.70;7.70;;;;;;;;;;5046618;28;20421;-64
2021/09/13 07:22:22;;;;;;;8.47;7.33;;;;;;;;;;5049591;28;20422;-64
2021/09/13 07:24:48;;;;;;;9.77;6.67;;;;;;;;;;5050991;28;20418;-64
2021/09/13 07:27:14;;;;;;;8.70;7.37;;;;;;;;;;5049575;28;20437;-64
2021/09/13 07:29:41;;;;;;;9.07;6.87;;;;;;;;;;5049667;28;20481;-64
2021/09/13 07:32:07;;;;;;;8.80;6.03;;;;;;;;;;5051405;28;20436;-64
2021/09/13 07:34:35;;;;;;;11.57;8.00;;;;;;;;;;5048820;28;20850;-64
2021/09/13 07:37:01;;;;;;;12.20;8.03;;;;;;;;;;5032494;28;20450;-64
2021/09/13 07:39:28;;;;;;;7.33;6.40;;;;;;;;;;5048575;28;20429;-64
2021/09/13 07:41:55;;;;;;;8.43;6.90;;;;;;;;;;5054358;28;20436;-64
2021/09/13 07:44:21;;;;;;;11.77;6.57;;;;;;;;;;5050342;28;20537;-63
2021/09/13 07:46:47;;;;;;;8.40;6.73;;;;;;;;;;5052224;28;20471;-63
2021/09/13 07:49:13;;;;;;;7.50;6.30;;;;;;;;;;5051498;28;20417;-64
2021/09/13 07:51:39;;;;;;;9.03;7.47;;;;;;;;;;5050475;28;20421;-70
2021/09/13 07:54:06;;;;;;;8.93;6.27;;;;;;;;;;5043757;28;20437;-63
2021/09/13 07:56:33;;;;;;;9.20;6.00;;;;;;;;;;5053115;28;20479;-73
2021/09/13 07:59:02;;;;;;;8.30;6.93;;;;;;;;;;5050389;28;20456;-62
2021/09/13 08:01:29;;;;;;;9.70;7.73;;;;;;;;;;5053705;28;20433;-65
2021/09/13 08:03:55;;;;;;;9.87;5.80;;;;;;;;;;5051507;28;20459;-68
2021/09/13 08:06:21;;;;;;;7.43;6.37;;;;;;;;;;5050324;28;20533;-67
2021/09/13 08:08:48;;;;;;;7.40;5.87;;;;;;;;;;5053590;28;20413;-67
2021/09/13 08:11:14;;;;;;;7.40;6.33;;;;;;;;;;5052576;28;20778;-64
2021/09/13 08:13:40;;;;;;;6.73;6.10;;;;;;;;;;5052276;28;20413;-67
2021/09/13 08:16:10;;;;;;;7.93;7.13;;;;;;;;;;5049387;28;20456;-63
2021/09/13 08:18:39;;;;;;;8.57;5.60;;;;;;;;;;5050816;28;20413;-63
2021/09/13 08:21:06;;;;;;;7.63;5.30;;;;;;;;;;5048360;28;20421;-61
2021/09/13 08:23:35;;;;;;;5.93;4.97;;;;;;;;;;5049175;28;20417;-63
2021/09/13 08:26:01;;;;;;;4.67;4.17;;;;;;;;;;5046570;28;20414;-64
2021/09/13 08:28:27;;;;;;;7.00;4.90;;;;;;;;;;5051706;28;20425;-65
2021/09/13 08:30:54;;;;;;;9.37;5.50;;;;;;;;;;5051616;28;20444;-64
2021/09/13 08:33:20;;;;;;;6.93;5.57;;;;;;;;;;5047638;28;20414;-64
2021/09/13 08:35:47;;;;;;;7.10;5.10;;;;;;;;;;5049327;28;20826;-67
2021/09/13 08:38:13;;;;;;;6.17;4.27;;;;;;;;;;5051826;28;20438;-64
2021/09/13 08:40:39;;;;;;;7.10;4.60;;;;;;;;;;5047362;28;20422;-64
2021/09/13 08:43:05;;;;;;;5.73;5.10;;;;;;;;;;5047832;28;21964;-65
2021/09/13 08:48:30;;;;;;;7.80;5.47;;;;;;;;;;5052634;28;20433;-66
2021/09/13 08:53:47;;;;;;;6.07;4.20;;;;;;;;;;5049636;28;20405;-62
2021/09/13 08:56:15;;;;;;;5.93;4.13;;;;;;;;;;5050725;28;20461;-65
2021/09/13 08:58:42;;;;;;;5.63;4.93;;;;;;;;;;5049733;28;20418;-63
2021/09/13 09:01:08;;;;;;;6.30;5.00;;;;;;;;;;5051640;28;20421;-66
2021/09/13 09:03:39;;;;;;;6.10;5.50;;;;;;;;;;5052361;28;20491;-67
2021/09/13 09:06:05;;;;;;;5.77;5.17;;;;;;;;;;5049183;28;20445;-66
2021/09/13 09:08:32;;;;;;;5.63;4.57;;;;;;;;;;5051444;28;20446;-68
2021/09/13 09:11:02;;;;;;;6.87;5.47;;;;;;;;;;5050079;28;20429;-68
2021/09/13 09:13:40;;;;;;;8.60;6.03;;;;;;;;;;5050536;28;20422;-64
2021/09/13 09:16:06;;;;;;;5.20;4.43;;;;;;;;;;5049693;28;20464;-63
2021/09/13 09:18:38;;;;;;;6.70;5.70;;;;;;;;;;5049952;28;20430;-67
2021/09/13 09:21:05;;;;;;;8.00;4.30;;;;;;;;;;5047858;28;20426;-65
2021/09/13 09:23:33;;;;;;;7.87;5.00;;;;;;;;;;5050404;28;20495;-65
2021/09/13 09:26:12;;;;;;;6.80;4.30;;;;;;;;;;5050187;28;20555;-69
2021/09/13 09:28:38;;;;;;;6.30;5.30;;;;;;;;;;5038322;28;20430;-68
2021/09/13 09:31:04;;;;;;;7.87;5.50;;;;;;;;;;5047166;28;20417;-67
2021/09/13 09:33:30;;;;;;;5.57;4.53;;;;;;;;;;5047045;28;20871;-66
2021/09/13 09:35:57;;;;;;;5.93;4.83;;;;;;;;;;5048575;28;20422;-67
2021/09/13 09:38:27;;;;;;;5.73;4.97;;;;;;;;;;5050485;28;20418;-67
2021/09/13 09:41:05;;;;;;;6.10;4.50;;;;;;;;;;5049073;28;20806;-63
2021/09/13 09:43:47;;;;;;;7.10;5.37;;;;;;;;;;5051052;28;20421;-59
2021/09/13 09:46:13;;;;;;;7.30;4.40;;;;;;;;;;5046927;28;20434;-60
2021/09/13 09:48:39;;;;;;;9.40;5.10;;;;;;;;;;5046828;28;20449;-62
2021/09/13 09:51:24;;;;;;;8.17;5.57;;;;;;;;;;5051063;28;20436;-61
2021/09/13 09:53:50;;;;;;;9.37;5.60;;;;;;;;;;5051163;28;20524;-61
2021/09/13 09:56:16;;;;;;;6.90;4.37;;;;;;;;;;5050340;28;20461;-61
2021/09/13 09:58:57;;;;;;;6.07;4.67;;;;;;;;;;5051523;28;20771;-61
2021/09/13 10:01:53;;;;;;;7.03;4.87;;;;;;;;;;5048400;28;20524;-61
2021/09/13 10:04:20;;;;;;;4.57;4.00;;;;;;;;;;5046892;28;20426;-61
2021/09/13 10:06:54;;;;;;;5.60;4.10;;;;;;;;;;5046548;28;20519;-61
2021/09/13 10:09:21;;;;;;;5.63;4.43;;;;;;;;;;5050771;28;20504;-61
2021/09/13 10:11:48;;;;;;;6.30;5.07;;;;;;;;;;5028048;28;20433;-60
2021/09/13 10:14:16;;;;;;;6.87;5.57;;;;;;;;;;5048754;28;20409;-61
2021/09/13 10:16:43;;;;;;;5.30;4.47;;;;;;;;;;5043633;28;20472;-61
2021/09/13 10:19:09;;;;;;;5.40;4.33;;;;;;;;;;5050681;28;20906;-61
2021/09/13 10:21:36;;;;;;;6.23;5.20;;;;;;;;;;5050957;28;20425;-62
2021/09/13 10:24:03;;;;;;;5.83;5.00;;;;;;;;;;5051576;28;20414;-62
2021/09/13 10:26:29;;;;;;;6.50;4.30;;;;;;;;;;5049397;28;20453;-63
2021/09/13 10:29:01;;;;;;;8.50;5.40;;;;;;;;;;5051089;28;20417;-62
2021/09/13 10:31:43;;;;;;;6.60;4.80;;;;;;;;;;5051002;28;20460;-63
2021/09/13 10:34:20;;;;;;;5.90;4.80;;;;;;;;;;5051327;28;20445;-61
2021/09/13 10:37:06;;;;;;;8.17;5.50;;;;;;;;;;5049497;28;20477;-62
2021/09/13 10:39:52;;;;;;;8.30;4.70;;;;;;;;;;5047276;28;20479;-62
2021/09/13 10:42:37;;;;;;;6.90;4.50;;;;;;;;;;5050606;28;20443;-62
2021/09/13 10:45:09;;;;;;;7.07;5.57;;;;;;;;;;5045631;28;20933;-60
2021/09/13 10:47:36;;;;;;;7.87;6.07;;;;;;;;;;5044563;28;20445;-64
2021/09/13 10:50:18;;;;;;;6.57;4.90;;;;;;;;;;5050103;28;20464;-63
2021/09/13 10:52:45;;;;;;;8.10;6.00;;;;;;;;;;5051942;28;20448;-62
2021/09/13 10:55:16;;;;;;;6.80;5.20;;;;;;;;;;5049588;28;20413;-62
2021/09/13 10:57:57;;;;;;;6.33;5.17;;;;;;;;;;5048006;28;20802;-63
2021/09/13 11:00:42;;;;;;;6.73;5.67;;;;;;;;;;5046667;28;20431;-61
2021/09/13 11:03:26;;;;;;;6.67;4.57;;;;;;;;;;5052787;28;20417;-62
2021/09/13 11:06:17;;;;;;;5.73;4.80;;;;;;;;;;5049633;28;20452;-60
2021/09/13 11:08:44;;;;;;;7.80;5.80;;;;;;;;;;5047704;28;20420;-61
2021/09/13 11:11:10;;;;;;;10.97;5.30;;;;;;;;;;5046128;28;20422;-62
2021/09/13 11:13:37;;;;;;;5.90;5.20;;;;;;;;;;5041164;28;20465;-60
2021/09/13 11:16:03;;;;;;;5.70;4.67;;;;;;;;;;5041691;28;20429;-63
2021/09/13 11:18:36;;;;;;;4.73;4.23;;;;;;;;;;5048956;28;20508;-62
2021/09/13 11:21:19;;;;;;;6.70;4.53;;;;;;;;;;5047767;28;20508;-62
2021/09/13 11:24:05;;;;;;;6.00;4.30;;;;;;;;;;5049880;28;20460;-61
2021/09/13 11:26:34;;;;;;;7.23;4.50;;;;;;;;;;5018380;28;20559;-61
2021/09/13 11:29:01;;;;;;;5.13;4.30;;;;;;;;;;5051203;28;20426;-62
2021/09/13 11:31:48;;;;;;;6.53;5.70;;;;;;;;;;5047543;28;20513;-62
2021/09/13 11:34:14;;;;;;;5.73;4.00;;;;;;;;;;5050986;28;20422;-63
2021/09/13 11:37:00;;;;;;;6.33;5.33;;;;;;;;;;5048316;28;20804;-61
2021/09/13 11:39:27;;;;;;;9.53;5.40;;;;;;;;;;5048699;28;20422;-62
2021/09/13 11:41:58;;;;;;;5.20;4.70;;;;;;;;;;5050358;28;20925;-63
2021/09/13 11:44:24;;;;;;;5.60;4.80;;;;;;;;;;5051650;28;20443;-62
2021/09/13 11:47:00;;;;;;;6.17;4.70;;;;;;;;;;5050589;28;20975;-62
2021/09/13 11:49:37;;;;;;;5.60;4.20;;;;;;;;;;5052037;28;20405;-64
2021/09/13 11:52:06;;;;;;;5.70;4.30;;;;;;;;;;5048101;28;20448;-63
2021/09/13 11:54:34;;;;;;;9.30;4.60;;;;;;;;;;5052120;28;20800;-61
2021/09/13 11:57:00;;;;;;;6.47;5.37;;;;;;;;;;5051530;28;21015;-63
2021/09/13 11:59:26;;;;;;;5.73;4.40;;;;;;;;;;5051363;28;20828;-64
2021/09/13 12:01:59;;;;;;;5.77;4.77;;;;;;;;;;5051166;28;20785;-62
2021/09/13 12:04:27;;;;;;;4.43;4.03;;;;;;;;;;5054560;28;20426;-60
2021/09/13 12:07:05;;;;;;;4.63;4.20;;;;;;;;;;5052647;28;20464;-62
2021/09/13 12:09:32;;;;;;;4.83;4.17;;;;;;;;;;5035591;28;20453;-61
2021/09/13 12:11:58;;;;;;;4.57;4.17;;;;;;;;;;5051284;28;20920;-62
2021/09/13 12:14:24;;;;;;;5.10;4.20;;;;;;;;;;5053456;28;20475;-62
2021/09/13 12:17:09;;;;;;;6.17;4.73;;;;;;;;;;5051035;28;20480;-63
2021/09/13 12:19:35;;;;;;;5.30;4.70;;;;;;;;;;5053269;28;20775;-63
2021/09/13 12:22:02;;;;;;;5.70;4.70;;;;;;;;;;5052556;28;20461;-62
2021/09/13 12:24:28;;;;;;;4.87;4.10;;;;;;;;;;5051595;28;20767;-62
2021/09/13 12:26:54;;;;;;;4.67;4.27;;;;;;;;;;5053370;28;20460;-61
2021/09/13 12:29:20;;;;;;;4.37;3.70;;;;;;;;;;5054648;28;20429;-62
2021/09/13 12:31:46;;;;;;;4.70;3.90;;;;;;;;;;5053984;28;20440;-62
2021/09/13 12:34:12;;;;;;;4.37;3.70;;;;;;;;;;5054219;28;20527;-63
2021/09/13 12:36:38;;;;;;;5.67;4.07;;;;;;;;;;5056017;28;20472;-63
2021/09/13 12:39:08;;;;;;;4.90;4.40;;;;;;;;;;5057765;28;20421;-64
2021/09/13 12:41:35;;;;;;;7.80;6.33;;;;;;;;;;5056920;28;20543;-63
2021/09/13 12:44:22;;;;;;;5.27;3.73;;;;;;;;;;5056166;28;20417;-62
2021/09/13 12:46:52;;;;;;;4.37;3.97;;;;;;;;;;5035987;28;21064;-62
2021/09/13 12:49:18;;;;;;;5.53;4.87;;;;;;;;;;5055177;28;20428;-62
2021/09/13 12:51:54;;;;;;;4.20;3.73;;;;;;;;;;5054187;28;20528;-61
2021/09/13 12:54:26;;;;;;;4.80;4.30;;;;;;;;;;5046236;28;20494;-62
2021/09/13 12:56:53;;;;;;;5.50;4.40;;;;;;;;;;5048053;28;20461;-62
2021/09/13 12:59:23;;;;;;;6.80;5.00;;;;;;;;;;5056035;28;20464;-62
2021/09/13 13:01:50;;;;;;;6.10;4.40;;;;;;;;;;5042311;23;20579;-82
2021/09/13 13:04:17;;;;;;;6.87;4.40;;;;;;;;;;5006240;28;20420;-81
2021/09/13 13:06:49;;;;;;;4.30;3.87;;;;;;;;;;4977209;28;20449;-81
2021/09/13 13:09:18;;;;;;;6.63;3.53;;;;;;;;;;4979557;28;20516;-81
2021/09/13 13:11:47;;;;;;;4.70;4.00;;;;;;;;;;4981907;28;20429;-82
2021/09/13 13:14:13;;;;;;;6.00;4.20;;;;;;;;;;4970871;28;20433;-82
2021/09/13 13:16:43;;;;;;;5.53;4.60;;;;;;;;;;4982377;28;20494;-79
2021/09/13 13:19:10;;;;;;;6.10;3.47;;;;;;;;;;4984973;28;20476;-80
2021/09/13 13:21:38;;;;;;;7.07;4.20;;;;;;;;;;4986115;28;20455;-82
2021/09/13 13:24:04;;;;;;;5.30;4.50;;;;;;;;;;4988085;28;20421;-82
2021/09/13 13:26:30;;;;;;;4.43;3.77;;;;;;;;;;4985398;28;20504;-82
2021/09/13 13:28:57;;;;;;;4.57;3.60;;;;;;;;;;4987599;28;20431;-84
2021/09/13 13:31:23;;;;;;;5.13;4.43;;;;;;;;;;4986764;28;20472;-83
2021/09/13 13:33:49;;;;;;;5.47;4.00;;;;;;;;;;4987448;28;20480;-82
2021/09/13 13:36:16;;;;;;;5.13;4.27;;;;;;;;;;4982237;28;20465;-83
2021/09/13 13:38:42;;;;;;;4.93;3.67;;;;;;;;;;4986329;28;20437;-82
2021/09/13 13:41:08;;;;;;;7.23;4.40;;;;;;;;;;4987250;28;20479;-84
2021/09/13 13:43:34;;;;;;;7.13;4.40;;;;;;;;;;4985660;28;20456;-84
2021/09/13 13:46:01;;;;;;;6.07;5.47;;;;;;;;;;4986127;28;20494;-82
2021/09/13 13:48:27;;;;;;;5.20;4.13;;;;;;;;;;4985911;28;20428;-85
2021/09/13 13:50:53;;;;;;;4.80;3.70;;;;;;;;;;4971886;28;20452;-84
2021/09/13 13:53:19;;;;;;;5.90;3.60;;;;;;;;;;4988528;28;20437;-84
2021/09/13 13:55:45;;;;;;;5.57;4.20;;;;;;;;;;4989165;28;20495;-84
2021/09/13 13:58:11;;;;;;;5.30;4.67;;;;;;;;;;4984955;28;20480;-84
2021/09/13 14:00:38;;;;;;;4.70;4.13;;;;;;;;;;4984885;28;20531;-85
2021/09/13 14:03:06;;;;;;;4.73;3.80;;;;;;;;;;4987747;28;20436;-84
2021/09/13 14:05:32;;;;;;;4.27;3.60;;;;;;;;;;4980667;28;20464;-83
2021/09/13 14:08:00;;;;;;;4.10;3.63;;;;;;;;;;4983315;28;20476;-83
2021/09/13 14:10:27;;;;;;;4.67;3.43;;;;;;;;;;4983138;28;20433;-83
2021/09/13 14:12:53;;;;;;;4.10;3.70;;;;;;;;;;4984735;28;20425;-81
2021/09/13 14:15:19;;;;;;;4.00;3.50;;;;;;;;;;4982101;28;20664;-83
2021/09/13 14:17:45;;;;;;;3.13;2.70;;;;;;;;;;4984367;28;20479;-84
2021/09/13 14:20:11;;;;;;;6.27;3.90;;;;;;;;;;4986016;28;20421;-84
2021/09/13 14:22:38;;;;;;;4.90;4.30;;;;;;;;;;4986976;28;20551;-84
2021/09/13 14:25:04;;;;;;;5.53;3.70;;;;;;;;;;4980562;28;20542;-84
2021/09/13 14:27:31;;;;;;;4.57;4.03;;;;;;;;;;4983930;28;20500;-83
2021/09/13 14:29:57;;;;;;;6.63;3.30;;;;;;;;;;4987376;28;20417;-85
2021/09/13 14:32:23;;;;;;;5.47;3.53;;;;;;;;;;4984685;28;20460;-84
2021/09/13 14:34:49;;;;;;;3.77;3.37;;;;;;;;;;4986431;28;20604;-86
2021/09/13 14:37:15;;;;;;;5.03;3.67;;;;;;;;;;4986283;28;20460;-85
2021/09/13 14:39:41;;;;;;;6.40;4.30;;;;;;;;;;4990733;28;20420;-84
2021/09/13 14:42:08;;;;;;;4.23;3.23;;;;;;;;;;4989769;28;20465;-85
2021/09/13 14:44:34;;;;;;;4.67;3.90;;;;;;;;;;4988512;28;20428;-85
2021/09/13 14:47:00;;;;;;;5.37;3.90;;;;;;;;;;4969233;28;20492;-83